Terminal Aerodrome Forecast
Issued by NWS

Home | Current Version | Previous Version | Text Only | Print | Product List | Glossary On
Versions: 1 2 3 4 5 6 7 8 9 10 11 12 13 14
000
FTUS42 TJSJ 260500
TAFJBQ
TAF
TJBQ 260532Z 2606/2706 12005KT P6SM FEW030
     FM260800 10005KT P6SM VCSH FEW022 SCT050
     FM261430 08017G27KT P6SM SCT025 SCT060
     FM262300 09008KT P6SM SCT025
      AMD NOT SKED TIL 261100=

USA.gov is the U.S. government's official web portal to all federal, state and local government web resources and services.